Time;durP1;ratioP1;P1;durP2;ratioP2;P2;SDS_P1;SDS_P2;PMS_P1;PMS_P2;Temp;Humidity;BMP_temperature;BMP_pressure;BME280_temperature;BME280_humidity;BME280_pressure;Samples;Min_cycle;Max_cycle;Signal;HPM_P1;HPM_P2
2021/05/31 00:00:40;;;;;;;5.65;2.97;;;;;;;19.35;37.56;101501.06;5104666;28;20054;-68
2021/05/31 00:03:08;;;;;;;6.28;2.75;;;;;;;19.32;37.83;101504.53;5072507;28;20040;-69
2021/05/31 00:05:35;;;;;;;6.07;2.85;;;;;;;19.47;37.63;101505.78;5106078;28;20051;-68
2021/05/31 00:08:03;;;;;;;6.13;2.78;;;;;;;19.42;37.78;101498.44;5091109;28;20055;-69
2021/05/31 00:10:30;;;;;;;6.25;2.85;;;;;;;19.21;38.05;101491.41;5073168;28;20048;-67
2021/05/31 00:12:58;;;;;;;5.20;2.70;;;;;;;19.02;38.26;101490.03;5091404;28;20048;-69
2021/05/31 00:15:28;;;;;;;6.65;3.28;;;;;;;19.14;38.17;101492.00;5072938;28;20048;-71
2021/05/31 00:17:57;;;;;;;5.47;2.97;;;;;;;19.23;38.14;101481.47;5106659;27;20044;-69
2021/05/31 00:20:25;;;;;;;5.50;2.80;;;;;;;19.13;38.32;101490.34;5102482;28;20043;-67
2021/05/31 00:22:52;;;;;;;5.85;3.00;;;;;;;19.03;38.17;101485.25;5109855;28;20050;-66
2021/05/31 00:25:20;;;;;;;6.45;3.30;;;;;;;18.95;38.39;101486.22;5095487;28;20060;-69
2021/05/31 00:27:48;;;;;;;6.15;2.90;;;;;;;18.96;38.73;101493.41;5110724;28;20081;-70
2021/05/31 00:30:16;;;;;;;5.63;2.70;;;;;;;18.98;38.58;101475.16;5093047;28;20048;-67
2021/05/31 00:32:44;;;;;;;5.72;2.95;;;;;;;19.03;39.02;101486.09;5126924;27;20499;-66
2021/05/31 00:35:11;;;;;;;6.18;3.20;;;;;;;19.09;38.46;101473.50;5117939;27;20043;-68
2021/05/31 00:37:39;;;;;;;5.78;2.95;;;;;;;19.08;38.50;101487.81;5105557;28;20129;-67
2021/05/31 00:40:08;;;;;;;10.13;3.33;;;;;;;19.19;38.56;101480.56;5093129;28;20055;-69
2021/05/31 00:42:37;;;;;;;6.57;3.00;;;;;;;19.19;38.14;101483.38;5075440;28;20055;-68
2021/05/31 00:45:06;;;;;;;7.43;3.10;;;;;;;19.23;38.41;101478.69;5111661;28;20356;-66
2021/05/31 00:47:35;;;;;;;5.93;3.50;;;;;;;19.04;38.53;101473.72;5111142;28;20348;-67
2021/05/31 00:50:03;;;;;;;6.53;3.33;;;;;;;18.70;39.21;101473.44;5093314;28;20055;-67
2021/05/31 00:52:31;;;;;;;6.40;3.08;;;;;;;18.88;38.78;101470.03;5110437;28;20062;-67
2021/05/31 00:55:02;;;;;;;8.18;3.33;;;;;;;18.69;39.29;101474.59;5111103;28;20051;-67
2021/05/31 00:57:30;;;;;;;7.70;3.35;;;;;;;18.93;39.08;101467.00;5110691;28;20054;-66
2021/05/31 00:59:57;;;;;;;6.57;3.05;;;;;;;18.97;38.77;101470.72;5076663;28;20039;-66
2021/05/31 01:02:25;;;;;;;6.97;3.00;;;;;;;18.91;38.76;101468.53;5111066;28;20054;-65
2021/05/31 01:04:52;;;;;;;5.22;3.22;;;;;;;18.88;38.95;101463.66;5110171;28;20059;-68
2021/05/31 01:07:25;;;;;;;6.15;3.40;;;;;;;18.70;39.48;101467.84;5110477;28;20036;-69
2021/05/31 01:10:00;;;;;;;5.47;2.90;;;;;;;18.80;39.01;101464.56;5111001;28;20063;-67
2021/05/31 01:12:34;;;;;;;8.30;3.55;;;;;;;18.79;39.38;101469.34;5092742;28;20051;-66
2021/05/31 01:15:35;;;;;;;4.65;3.00;;;;;;;18.61;39.58;101464.34;5092755;28;20051;-66
2021/05/31 01:18:21;;;;;;;5.80;3.40;;;;;;;18.54;39.78;101466.91;5092331;28;20402;-65
2021/05/31 01:21:04;;;;;;;6.63;3.13;;;;;;;18.37;40.07;101461.53;5092926;28;20055;-68
2021/05/31 01:23:34;;;;;;;5.10;2.97;;;;;;;18.59;39.81;101463.88;5092729;28;20410;-67
2021/05/31 01:26:08;;;;;;;11.90;3.33;;;;;;;18.57;39.85;101463.41;5109505;28;20388;-67
2021/05/31 01:28:58;;;;;;;5.57;2.97;;;;;;;18.29;40.32;101459.69;5109885;28;20063;-67
2021/05/31 01:31:42;;;;;;;4.50;2.92;;;;;;;18.43;40.30;101454.63;5110059;28;20055;-67
2021/05/31 01:34:11;;;;;;;11.90;3.42;;;;;;;18.50;40.20;101457.59;5126556;28;20067;-67
2021/05/31 01:36:44;;;;;;;6.18;3.38;;;;;;;18.43;40.30;101465.78;5108363;28;20048;-67
2021/05/31 01:39:13;;;;;;;7.10;3.28;;;;;;;18.61;40.05;101453.19;5075827;28;20056;-66
2021/05/31 01:41:42;;;;;;;6.00;2.72;;;;;;;18.63;39.92;101453.66;5111397;28;20517;-67
2021/05/31 01:44:09;;;;;;;6.18;3.17;;;;;;;18.38;40.45;101447.22;5096398;28;20048;-66
2021/05/31 01:46:36;;;;;;;5.93;3.13;;;;;;;18.18;40.75;101448.16;5113079;28;20035;-68
2021/05/31 01:49:04;;;;;;;5.78;3.25;;;;;;;18.38;40.33;101440.84;5095391;28;20051;-69
2021/05/31 01:51:31;;;;;;;6.22;3.10;;;;;;;18.47;40.35;101444.34;5112601;28;20051;-69
2021/05/31 01:54:00;;;;;;;9.50;3.53;;;;;;;18.11;41.65;101439.56;5095986;28;20055;-69
2021/05/31 01:56:29;;;;;;;8.00;3.75;;;;;;;18.26;41.53;101443.63;5079324;28;20048;-69
2021/05/31 01:58:57;;;;;;;43.80;4.05;;;;;;;18.39;41.44;101434.94;5096072;28;20047;-68
2021/05/31 02:01:24;;;;;;;8.18;3.42;;;;;;;18.30;41.71;101441.78;5096094;28;20062;-65
2021/05/31 02:03:52;;;;;;;6.95;3.50;;;;;;;18.13;42.17;101442.81;5114381;28;20522;-68
2021/05/31 02:06:19;;;;;;;13.10;3.22;;;;;;;17.91;42.61;101446.84;5113015;28;20528;-69
2021/05/31 02:08:46;;;;;;;5.35;3.33;;;;;;;17.89;42.78;101442.75;5095708;28;20056;-68
2021/05/31 02:11:43;;;;;;;6.35;3.40;;;;;;;17.87;42.88;101439.47;5094918;28;20056;-67
2021/05/31 02:14:25;;;;;;;5.95;3.47;;;;;;;17.78;43.17;101438.78;5113231;28;20054;-68
2021/05/31 02:16:58;;;;;;;5.68;3.10;;;;;;;17.81;43.14;101438.09;5096011;28;20048;-68
2021/05/31 02:19:26;;;;;;;7.75;3.72;;;;;;;18.03;42.81;101434.88;5113701;28;20367;-68
2021/05/31 02:21:55;;;;;;;8.70;3.72;;;;;;;18.16;42.74;101430.97;5128777;27;20378;-68
2021/05/31 02:24:22;;;;;;;7.25;3.70;;;;;;;18.08;42.56;101433.84;5095110;28;20051;-67
2021/05/31 02:26:51;;;;;;;7.38;3.90;;;;;;;17.94;43.03;101428.59;5112845;28;20048;-69
2021/05/31 02:29:19;;;;;;;5.72;3.55;;;;;;;17.90;43.07;101431.25;5113301;28;20047;-69
2021/05/31 02:31:46;;;;;;;8.85;3.50;;;;;;;17.87;43.27;101431.94;5128716;27;20382;-68
2021/05/31 02:34:16;;;;;;;7.05;3.58;;;;;;;18.02;42.96;101436.06;5113549;28;20430;-69
2021/05/31 02:36:43;;;;;;;7.63;3.60;;;;;;;17.89;43.20;101443.56;5112629;28;20065;-68
2021/05/31 02:39:10;;;;;;;10.38;3.42;;;;;;;17.85;43.29;101437.03;5113031;28;20391;-67
2021/05/31 02:41:38;;;;;;;6.05;3.42;;;;;;;17.63;43.62;101440.25;5113506;28;20504;-69
2021/05/31 02:44:05;;;;;;;5.78;3.45;;;;;;;17.48;44.55;101442.84;5113177;28;20372;-68
2021/05/31 02:46:33;;;;;;;10.70;3.70;;;;;;;17.55;44.12;101445.91;5112221;28;20051;-68
2021/05/31 02:49:00;;;;;;;7.15;3.25;;;;;;;17.52;44.33;101443.81;5113245;28;20047;-67
2021/05/31 02:51:28;;;;;;;8.18;3.70;;;;;;;17.53;44.32;101443.47;5094593;28;20423;-67
2021/05/31 02:53:55;;;;;;;10.25;3.40;;;;;;;17.35;44.61;101441.94;5112898;28;20047;-67
2021/05/31 02:56:22;;;;;;;7.13;3.80;;;;;;;16.94;45.87;101446.72;5095172;28;20517;-66
2021/05/31 02:58:50;;;;;;;8.27;3.72;;;;;;;16.89;45.72;101445.75;5113140;28;20074;-68
2021/05/31 03:01:17;;;;;;;6.55;3.53;;;;;;;17.19;45.26;101443.72;5078373;28;20074;-68
2021/05/31 03:03:45;;;;;;;7.43;3.70;;;;;;;17.41;44.63;101446.16;5112784;28;20059;-69
2021/05/31 03:06:12;;;;;;;6.07;3.50;;;;;;;17.24;44.88;101449.13;5112710;28;20406;-67
2021/05/31 03:08:39;;;;;;;6.55;3.47;;;;;;;17.04;45.37;101444.34;5094723;28;20525;-67
2021/05/31 03:11:07;;;;;;;6.10;3.40;;;;;;;16.88;45.65;101454.44;5112706;28;20051;-65
2021/05/31 03:13:38;;;;;;;6.80;3.60;;;;;;;17.09;45.53;101455.28;5112746;28;20052;-67
2021/05/31 03:16:06;;;;;;;7.95;3.63;;;;;;;16.83;46.10;101449.06;5112535;28;20055;-67
2021/05/31 03:18:33;;;;;;;7.93;3.50;;;;;;;16.67;46.53;101456.38;5112275;28;20384;-65
2021/05/31 03:21:01;;;;;;;5.65;3.72;;;;;;;17.07;45.75;101459.56;5112741;28;20050;-67
2021/05/31 03:23:28;;;;;;;7.28;3.70;;;;;;;17.18;45.48;101446.84;5110382;27;20051;-68
2021/05/31 03:25:55;;;;;;;7.25;3.70;;;;;;;17.30;45.24;101449.69;5111745;28;20046;-67
2021/05/31 03:28:23;;;;;;;8.35;3.60;;;;;;;17.15;45.56;101448.34;5112437;28;20039;-67
2021/05/31 03:30:50;;;;;;;8.85;3.60;;;;;;;17.25;45.36;101450.72;5112408;28;20056;-66
2021/05/31 03:33:18;;;;;;;10.95;3.75;;;;;;;17.00;45.94;101454.50;5094093;28;20047;-66
2021/05/31 03:35:45;;;;;;;6.85;3.72;;;;;;;16.40;47.41;101462.38;5112391;28;20050;-67
2021/05/31 03:38:12;;;;;;;7.78;3.63;;;;;;;16.57;47.55;101473.44;5111261;28;20238;-66
2021/05/31 03:40:40;;;;;;;6.57;3.88;;;;;;;16.42;47.69;101466.44;5111589;28;20487;-68
2021/05/31 03:43:07;;;;;;;6.60;3.90;;;;;;;16.41;47.97;101464.00;5112325;28;20490;-69
2021/05/31 03:45:35;;;;;;;9.10;4.13;;;;;;;16.31;48.10;101468.00;5111442;28;20052;-68
2021/05/31 03:48:02;;;;;;;6.68;4.05;;;;;;;16.21;48.58;101459.19;5111090;28;20047;-68
2021/05/31 03:50:31;;;;;;;9.80;3.85;;;;;;;16.40;47.89;101460.44;5092670;28;20048;-66
2021/05/31 03:52:58;;;;;;;8.57;4.18;;;;;;;16.30;48.12;101462.75;5111811;28;20048;-69
2021/05/31 03:55:26;;;;;;;8.70;4.03;;;;;;;16.46;47.92;101464.66;5111993;28;20051;-69
2021/05/31 03:57:53;;;;;;;6.65;3.78;;;;;;;16.46;47.87;101467.44;5111449;28;20055;-70
2021/05/31 04:00:21;;;;;;;7.53;3.85;;;;;;;16.27;48.42;101471.75;5111325;28;20059;-70
2021/05/31 04:02:48;;;;;;;13.85;4.05;;;;;;;15.97;49.04;101470.06;5111708;28;20040;-70
2021/05/31 04:05:16;;;;;;;8.65;4.05;;;;;;;16.29;48.34;101466.69;5111419;28;20044;-69
2021/05/31 04:13:17;;;;;;;6.75;3.70;;;;;;;16.22;48.54;101466.38;5111735;28;20050;-69
2021/05/31 04:15:45;;;;;;;9.82;3.63;;;;;;;16.10;48.47;101469.88;5111934;28;20446;-69
2021/05/31 04:18:12;;;;;;;11.88;4.30;;;;;;;16.16;48.49;101467.72;5110490;28;20495;-68
2021/05/31 04:20:40;;;;;;;7.90;4.18;;;;;;;16.34;47.92;101463.72;5093386;28;20044;-68
2021/05/31 04:23:08;;;;;;;8.90;3.90;;;;;;;16.43;47.62;101464.50;5111673;28;20673;-67
2021/05/31 04:25:35;;;;;;;8.95;3.83;;;;;;;16.54;47.14;101461.06;5093417;28;20047;-69
2021/05/31 04:28:03;;;;;;;7.13;3.90;;;;;;;16.51;47.10;101461.69;5093177;28;20398;-68
2021/05/31 04:30:30;;;;;;;9.93;3.90;;;;;;;16.40;47.52;101468.78;5111247;28;20099;-69
2021/05/31 04:32:57;;;;;;;8.63;4.28;;;;;;;16.60;46.92;101467.22;5111573;28;20368;-68
2021/05/31 04:35:25;;;;;;;8.50;3.58;;;;;;;16.62;46.75;101460.19;5111560;28;20051;-68
2021/05/31 04:37:56;;;;;;;8.68;3.63;;;;;;;16.38;47.41;101470.25;5111379;28;20060;-68
2021/05/31 04:40:24;;;;;;;8.43;3.80;;;;;;;16.27;47.68;101467.00;5093518;28;20544;-69
2021/05/31 04:42:51;;;;;;;11.00;4.10;;;;;;;16.54;47.10;101466.59;5111501;28;20051;-69
2021/05/31 04:45:19;;;;;;;7.40;3.90;;;;;;;16.40;47.23;101466.00;5111248;28;20050;-68
2021/05/31 04:47:46;;;;;;;7.25;3.55;;;;;;;16.42;47.33;101466.44;5111141;28;20411;-68
2021/05/31 04:50:15;;;;;;;10.55;4.05;;;;;;;16.69;46.88;101463.25;5111012;28;20371;-70
2021/05/31 04:52:42;;;;;;;9.70;3.70;;;;;;;16.62;46.83;101468.53;5111235;28;20046;-69
2021/05/31 04:55:15;;;;;;;8.15;3.85;;;;;;;16.70;46.54;101464.84;5110975;28;20059;-68
2021/05/31 04:57:43;;;;;;;9.18;3.63;;;;;;;16.29;47.65;101469.47;5111009;28;20039;-69
2021/05/31 05:00:13;;;;;;;6.85;3.90;;;;;;;16.40;47.58;101471.56;5111241;28;20078;-70
2021/05/31 05:02:41;;;;;;;11.20;4.10;;;;;;;16.58;47.24;101464.75;5110582;28;20051;-68
2021/05/31 05:05:09;;;;;;;9.95;4.55;;;;;;;16.58;47.00;101470.34;5110710;28;20058;-69
2021/05/31 05:07:44;;;;;;;10.25;4.20;;;;;;;16.59;46.81;101474.75;5092848;28;20395;-69
2021/05/31 05:10:20;;;;;;;8.77;4.03;;;;;;;16.42;47.43;101474.00;5092706;28;20044;-67
2021/05/31 05:12:50;;;;;;;8.90;4.22;;;;;;;16.77;46.92;101461.56;5110756;28;20048;-69
2021/05/31 05:15:20;;;;;;;12.70;4.40;;;;;;;16.41;47.05;101461.22;5110924;28;20055;-70
2021/05/31 05:17:48;;;;;;;9.95;4.20;;;;;;;16.57;46.83;101465.94;5097077;28;20384;-69
2021/05/31 05:20:17;;;;;;;11.63;4.38;;;;;;;16.77;46.46;101458.78;5115022;28;20406;-70
2021/05/31 05:22:44;;;;;;;9.55;4.15;;;;;;;17.10;45.40;101456.09;5114489;28;20067;-67
2021/05/31 05:25:12;;;;;;;8.18;4.22;;;;;;;17.25;44.62;101458.25;5096636;28;20050;-69
2021/05/31 05:27:43;;;;;;;10.23;4.22;;;;;;;16.85;45.80;101455.94;5114748;28;20133;-68
2021/05/31 05:30:14;;;;;;;7.43;3.78;;;;;;;17.20;45.07;101456.50;5096715;28;20395;-70
2021/05/31 05:32:47;;;;;;;10.27;4.10;;;;;;;17.14;44.36;101448.72;5130398;27;20058;-71
2021/05/31 05:35:28;;;;;;;9.45;3.60;;;;;;;17.06;44.74;101455.97;5112372;28;20047;-68
2021/05/31 05:43:17;;;;;;;11.38;4.28;;;;;;;17.10;44.01;101464.44;5114134;28;20054;-66
2021/05/31 05:48:15;;;;;;;6.97;3.80;;;;;;;16.95;44.12;101449.16;5114541;28;20376;-67
2021/05/31 05:50:44;;;;;;;8.77;4.78;;;;;;;17.04;43.94;101469.41;5113773;28;20043;-69
2021/05/31 05:53:12;;;;;;;14.60;4.97;;;;;;;17.15;43.43;101461.47;5114045;28;20395;-67
2021/05/31 05:55:40;;;;;;;6.38;3.67;;;;;;;17.10;43.14;101456.91;5114416;28;20047;-68
2021/05/31 05:58:07;;;;;;;8.13;3.80;;;;;;;17.19;42.95;101456.84;5113812;28;20078;-67
2021/05/31 06:00:36;;;;;;;8.48;3.97;;;;;;;17.35;42.84;101458.66;5113693;28;20052;-68
2021/05/31 06:03:04;;;;;;;7.53;3.83;;;;;;;17.37;42.77;101452.75;5113959;28;20044;-66
2021/05/31 06:05:32;;;;;;;6.32;3.60;;;;;;;17.58;42.11;101457.19;5113125;28;20055;-68
2021/05/31 06:08:00;;;;;;;7.28;3.28;;;;;;;17.67;41.99;101445.94;5113757;28;20063;-68
2021/05/31 06:10:27;;;;;;;12.38;3.88;;;;;;;17.67;41.63;101448.72;5095571;28;20047;-67
2021/05/31 06:12:55;;;;;;;12.00;3.67;;;;;;;17.68;41.62;101439.19;5113162;28;20086;-67
2021/05/31 06:15:24;;;;;;;7.20;3.85;;;;;;;17.35;42.02;101455.88;5113820;28;20066;-70
2021/05/31 06:17:52;;;;;;;7.95;3.63;;;;;;;17.26;42.19;101445.97;5094597;28;20052;-68
2021/05/31 06:20:19;;;;;;;12.25;3.67;;;;;;;17.40;42.05;101457.66;5112825;28;20387;-68
2021/05/31 06:22:46;;;;;;;9.77;3.50;;;;;;;17.35;42.16;101444.72;5094678;28;20410;-71
2021/05/31 06:25:14;;;;;;;8.50;3.47;;;;;;;17.50;42.05;101455.28;5095341;28;20510;-69
2021/05/31 06:27:44;;;;;;;9.05;3.67;;;;;;;17.69;41.77;101443.63;5113022;28;20047;-70
2021/05/31 06:30:13;;;;;;;10.02;3.40;;;;;;;17.91;41.27;101449.63;5113326;28;20044;-69
2021/05/31 06:32:40;;;;;;;9.43;4.55;;;;;;;18.04;41.06;101441.28;5113322;28;20058;-68
2021/05/31 06:35:08;;;;;;;11.05;3.78;;;;;;;17.77;41.33;101451.06;5128412;27;20039;-69
2021/05/31 06:37:38;;;;;;;8.68;3.42;;;;;;;17.70;41.32;101450.81;5128620;27;20391;-69
2021/05/31 06:40:11;;;;;;;10.88;3.15;;;;;;;17.76;41.44;101461.44;5127905;27;20109;-67
2021/05/31 06:42:40;;;;;;;10.23;3.50;;;;;;;17.71;41.22;101461.63;5094911;28;20058;-69
2021/05/31 06:45:09;;;;;;;11.23;3.78;;;;;;;17.60;41.49;101452.06;5112388;28;20047;-70
2021/05/31 06:47:37;;;;;;;10.13;4.17;;;;;;;17.48;41.51;101456.78;5128687;27;20056;-70
2021/05/31 06:50:06;;;;;;;9.25;3.60;;;;;;;17.44;41.80;101459.41;5112984;28;20297;-69
2021/05/31 06:52:34;;;;;;;8.50;3.85;;;;;;;17.54;41.94;101459.00;5112972;28;20054;-69
2021/05/31 06:55:04;;;;;;;6.75;3.40;;;;;;;17.71;41.43;101453.25;5094656;28;20454;-71
2021/05/31 06:57:32;;;;;;;9.00;3.72;;;;;;;17.83;40.88;101452.50;5112206;28;20073;-68
2021/05/31 06:59:59;;;;;;;12.82;4.40;;;;;;;17.70;41.20;101448.84;5093315;28;20051;-69
2021/05/31 07:02:27;;;;;;;8.55;3.38;;;;;;;18.04;40.51;101450.47;5078159;28;20162;-69
2021/05/31 07:04:54;;;;;;;9.40;3.42;;;;;;;17.93;40.75;101440.91;5112515;28;20058;-66
2021/05/31 07:07:22;;;;;;;6.80;3.28;;;;;;;17.69;41.05;101440.84;5127790;27;20055;-70
2021/05/31 07:09:51;;;;;;;7.90;4.45;;;;;;;17.77;41.34;101437.97;5112057;28;20070;-70
2021/05/31 07:12:18;;;;;;;11.70;4.72;;;;;;;18.08;41.18;101436.66;5106442;28;20047;-71
2021/05/31 07:14:48;;;;;;;11.48;4.07;;;;;;;18.15;40.32;101442.47;5094909;28;20499;-70
2021/05/31 07:17:15;;;;;;;8.60;3.80;;;;;;;18.16;40.24;101432.94;5095056;28;20047;-68
2021/05/31 07:19:45;;;;;;;10.90;3.92;;;;;;;18.13;39.93;101428.06;5112579;28;20121;-69
2021/05/31 07:22:16;;;;;;;9.75;3.83;;;;;;;18.45;40.19;101425.19;5110936;28;20411;-65
2021/05/31 07:24:44;;;;;;;12.60;4.07;;;;;;;18.88;39.55;101428.16;5127374;27;20494;-70
2021/05/31 07:27:12;;;;;;;10.38;4.68;;;;;;;19.01;38.60;101426.16;5111182;28;20042;-66
2021/05/31 07:29:39;;;;;;;6.95;3.55;;;;;;;19.03;38.52;101430.22;5111706;28;20039;-69
2021/05/31 07:32:07;;;;;;;9.32;3.85;;;;;;;19.05;38.10;101421.50;5112015;28;20055;-67
2021/05/31 07:34:35;;;;;;;11.93;3.45;;;;;;;19.19;37.85;101421.94;5111553;28;20048;-67
2021/05/31 07:37:02;;;;;;;11.52;3.38;;;;;;;19.61;37.19;101425.16;5093440;28;20050;-70
2021/05/31 07:39:30;;;;;;;11.00;4.00;;;;;;;19.95;36.87;101419.72;5087434;28;20404;-68
2021/05/31 07:41:58;;;;;;;11.35;4.05;;;;;;;19.95;36.33;101424.47;5091773;28;20051;-68
2021/05/31 07:44:25;;;;;;;10.55;3.60;;;;;;;19.68;36.63;101417.75;5092267;28;20056;-69
2021/05/31 07:46:53;;;;;;;8.05;3.38;;;;;;;19.54;35.93;101420.19;5091747;28;20040;-68
2021/05/31 07:49:20;;;;;;;9.23;3.47;;;;;;;19.40;36.41;101418.97;5091492;28;20392;-68
2021/05/31 07:51:48;;;;;;;8.00;3.67;;;;;;;19.70;35.91;101418.22;5091493;28;20063;-69
2021/05/31 07:54:16;;;;;;;9.25;3.15;;;;;;;19.60;36.46;101415.13;5056735;28;20052;-66
2021/05/31 07:56:43;;;;;;;7.68;3.13;;;;;;;19.88;36.17;101413.94;5091883;28;20048;-69
2021/05/31 07:59:11;;;;;;;5.95;2.85;;;;;;;20.11;35.13;101409.34;5073291;28;20055;-69
2021/05/31 08:01:38;;;;;;;11.55;3.85;;;;;;;20.06;35.13;101406.81;5073884;28;20367;-70
2021/05/31 08:04:06;;;;;;;6.65;3.15;;;;;;;20.04;34.93;101400.78;5056425;28;20454;-68
2021/05/31 08:06:34;;;;;;;8.68;3.10;;;;;;;19.75;34.83;101415.16;5100322;28;20047;-69
2021/05/31 08:09:05;;;;;;;11.75;3.78;;;;;;;19.90;34.64;101411.59;5111401;28;20044;-70
2021/05/31 08:11:32;;;;;;;;;;;;;;;19.83;34.94;101417.00;5093353;28;20063;-69
2021/05/31 08:14:00;;;;;;;7.63;3.17;;;;;;;20.06;34.63;101400.41;5110733;28;19919;-68
2021/05/31 08:16:29;;;;;;;7.15;3.10;;;;;;;20.22;34.15;101392.88;5111395;28;20494;-68
2021/05/31 08:18:57;;;;;;;9.50;2.83;;;;;;;20.13;34.43;101392.19;5110783;28;20062;-67
2021/05/31 08:21:25;;;;;;;6.85;2.70;;;;;;;20.35;34.14;101388.78;5110398;28;20059;-68
2021/05/31 08:23:52;;;;;;;7.47;3.03;;;;;;;20.55;33.79;101378.47;5110510;28;20059;-70
2021/05/31 08:26:20;;;;;;;6.97;3.10;;;;;;;20.24;34.33;101381.31;5111813;28;20122;-69
2021/05/31 08:28:48;;;;;;;12.57;2.90;;;;;;;20.06;34.36;101381.66;5093614;28;20052;-70
2021/05/31 08:31:16;;;;;;;8.02;3.15;;;;;;;20.23;33.30;101388.06;5110413;28;20052;-71
2021/05/31 08:33:43;;;;;;;7.68;2.90;;;;;;;20.21;33.24;101380.03;5110756;28;20052;-70
2021/05/31 08:36:11;;;;;;;9.07;3.00;;;;;;;20.06;33.86;101386.41;5109597;28;20059;-70
2021/05/31 08:38:38;;;;;;;9.60;3.40;;;;;;;20.27;33.54;101378.59;5109417;28;20054;-70
2021/05/31 08:41:06;;;;;;;7.22;3.20;;;;;;;20.43;33.67;101379.38;5074449;28;20910;-69
2021/05/31 08:43:33;;;;;;;6.13;3.20;;;;;;;20.22;33.32;101381.66;5077634;28;20052;-66
2021/05/31 08:46:02;;;;;;;7.80;3.03;;;;;;;20.04;34.17;101374.78;5109541;28;20113;-67
2021/05/31 08:48:29;;;;;;;6.72;3.03;;;;;;;19.95;34.19;101372.16;5109306;28;20043;-69
2021/05/31 08:50:57;;;;;;;8.38;3.13;;;;;;;19.99;33.77;101359.09;5092162;28;20047;-68
2021/05/31 08:53:25;;;;;;;10.35;3.22;;;;;;;20.05;33.91;101365.19;5110419;28;20066;-67
2021/05/31 08:55:52;;;;;;;7.40;2.90;;;;;;;20.18;33.90;101366.78;5110126;28;20521;-69
2021/05/31 08:58:20;;;;;;;7.15;3.22;;;;;;;20.36;33.45;101356.84;5092091;28;20048;-67
2021/05/31 09:00:47;;;;;;;7.95;3.55;;;;;;;20.40;33.09;101362.50;5075830;28;20141;-67
2021/05/31 09:03:17;;;;;;;6.18;3.00;;;;;;;20.52;32.98;101356.81;5110431;28;20048;-68
2021/05/31 09:05:45;;;;;;;;;;;;;;;20.61;32.45;101351.78;5110851;28;20047;-64
2021/05/31 09:08:16;;;;;;;5.28;2.85;;;;;;;20.84;33.54;101342.34;5110221;28;20420;-68
2021/05/31 09:10:57;;;;;;;5.30;2.70;;;;;;;20.81;32.24;101356.25;5087094;28;20415;-65
2021/05/31 09:13:31;;;;;;;6.70;2.88;;;;;;;20.80;32.33;101349.03;5089324;28;20060;-66
2021/05/31 09:16:12;;;;;;;7.05;3.42;;;;;;;20.63;32.35;101352.22;5103090;28;20070;-69
2021/05/31 09:18:49;;;;;;;9.20;3.17;;;;;;;20.59;31.98;101348.56;5091734;28;20040;-72
2021/05/31 09:21:33;;;;;;;6.50;2.70;;;;;;;20.65;31.97;101349.88;5090968;28;20043;-71
2021/05/31 09:24:02;;;;;;;6.35;2.88;;;;;;;20.73;31.86;101349.69;5102003;28;20150;-67
2021/05/31 09:26:48;;;;;;;6.05;3.10;;;;;;;20.60;32.69;101345.41;5091106;28;20047;-70
2021/05/31 09:29:18;;;;;;;8.70;3.00;;;;;;;20.75;32.65;101350.13;5080704;28;20051;-66
2021/05/31 09:32:00;;;;;;;7.70;2.90;;;;;;;20.70;32.37;101347.63;5094438;28;20054;-71
2021/05/31 09:34:28;;;;;;;8.77;3.08;;;;;;;20.63;32.17;101335.44;5069766;28;20056;-69
2021/05/31 09:37:01;;;;;;;7.82;2.67;;;;;;;20.58;32.33;101338.53;5094359;28;20047;-67
2021/05/31 09:39:40;;;;;;;7.97;3.15;;;;;;;20.65;32.26;101338.69;5113690;28;20044;-69
2021/05/31 09:42:14;;;;;;;6.05;2.92;;;;;;;20.51;31.16;101346.75;5076832;28;20055;-68
2021/05/31 09:44:45;;;;;;;7.07;3.60;;;;;;;20.78;31.58;101340.97;5088879;28;20039;-70
2021/05/31 09:47:13;;;;;;;8.77;2.88;;;;;;;21.06;31.14;101338.03;5073147;28;20528;-72
2021/05/31 09:49:40;;;;;;;4.97;2.60;;;;;;;21.25;31.32;101338.81;5094736;28;20399;-71
2021/05/31 09:52:10;;;;;;;9.38;3.08;;;;;;;21.31;31.15;101358.13;5090034;28;20063;-71
2021/05/31 09:54:46;;;;;;;8.32;2.58;;;;;;;21.04;30.79;101338.38;5072881;28;20502;-75
2021/05/31 09:57:34;;;;;;;8.60;2.70;;;;;;;21.04;31.86;101343.19;5093612;28;20055;-71
2021/05/31 10:00:13;;;;;;;5.25;2.90;;;;;;;20.75;31.53;101338.91;5092972;28;20066;-72
2021/05/31 10:03:24;;;;;;;7.78;2.83;;;;;;;20.88;31.82;101346.03;5082520;27;20051;-69
2021/05/31 10:08:40;;;;;;;6.10;3.22;;;;;;;21.04;31.40;101346.00;5023044;28;20532;-68
2021/05/31 10:11:08;;;;;;;7.43;2.90;;;;;;;20.92;31.09;101344.09;5022992;28;20153;-67
2021/05/31 10:13:43;;;;;;;5.43;2.83;;;;;;;20.97;31.65;101337.41;5030362;28;20057;-69
2021/05/31 10:16:13;;;;;;;5.38;3.08;;;;;;;20.88;31.45;101343.22;5007836;28;20188;-66
2021/05/31 10:18:41;;;;;;;9.52;3.30;;;;;;;20.95;31.67;101332.19;5029567;28;20499;-73
2021/05/31 10:21:12;;;;;;;4.53;2.38;;;;;;;21.04;31.79;101331.97;5026873;28;20050;-75
2021/05/31 10:23:43;;;;;;;7.90;2.53;;;;;;;21.22;31.90;101330.31;5007959;28;20049;-69
2021/05/31 10:26:32;;;;;;;6.07;3.13;;;;;;;21.06;31.42;101321.22;4940744;28;20059;-70
2021/05/31 10:29:00;;;;;;;9.17;3.10;;;;;;;21.01;31.01;101322.31;4924237;28;20054;-71
2021/05/31 10:31:27;;;;;;;8.35;3.10;;;;;;;21.10;30.79;101330.47;4947420;28;20043;-69
2021/05/31 10:34:02;;;;;;;4.88;2.72;;;;;;;20.94;31.62;101324.94;4944094;28;20075;-72
2021/05/31 10:36:33;;;;;;;4.65;2.72;;;;;;;21.01;31.84;101321.50;4946904;28;20054;-67
2021/05/31 10:39:07;;;;;;;;;;;;;;;21.04;31.38;101329.97;4943460;28;20062;-67
2021/05/31 10:41:38;;;;;;;8.18;3.00;;;;;;;21.16;31.50;101332.63;4959226;28;20420;-67
2021/05/31 10:44:16;;;;;;;8.60;2.67;;;;;;;21.53;31.82;101324.50;4996776;28;20069;-68
2021/05/31 10:46:44;;;;;;;7.10;2.60;;;;;;;21.71;30.92;101320.03;4983154;28;20046;-67
2021/05/31 10:49:23;;;;;;;7.60;2.72;;;;;;;21.74;30.61;101318.50;4995832;28;20560;-65
2021/05/31 10:51:51;;;;;;;5.85;2.80;;;;;;;21.70;30.22;101312.84;4996489;28;20057;-68
2021/05/31 10:54:19;;;;;;;6.45;3.40;;;;;;;21.76;30.33;101313.34;5006465;28;20177;-69
2021/05/31 10:56:48;;;;;;;8.63;3.03;;;;;;;21.77;29.40;101310.16;4999516;28;20058;-66
2021/05/31 10:59:19;;;;;;;8.70;2.92;;;;;;;21.45;29.77;101310.75;4979686;28;20572;-67
2021/05/31 11:01:51;;;;;;;7.03;2.50;;;;;;;21.74;29.29;101305.28;4982769;28;20540;-69
2021/05/31 11:04:18;;;;;;;5.20;2.53;;;;;;;22.00;29.87;101294.13;5072749;27;20055;-68
2021/05/31 11:06:48;;;;;;;7.93;3.00;;;;;;;21.95;29.84;101307.69;5102720;27;20048;-73
2021/05/31 11:09:28;;;;;;;6.70;2.83;;;;;;;21.77;29.61;101298.94;5098384;28;20063;-72
2021/05/31 11:12:03;;;;;;;6.07;2.97;;;;;;;21.85;29.52;101289.47;5111035;28;20399;-72
2021/05/31 11:14:40;;;;;;;4.95;2.70;;;;;;;21.99;29.93;101294.50;5091183;28;20051;-68
2021/05/31 11:17:17;;;;;;;6.60;3.03;;;;;;;22.16;29.23;101277.13;5107525;28;20063;-70
2021/05/31 11:19:47;;;;;;;8.40;2.70;;;;;;;22.37;28.64;101268.22;5107146;28;20059;-70
2021/05/31 11:22:26;;;;;;;8.10;2.90;;;;;;;22.24;28.45;101276.06;5126870;27;20399;-69
2021/05/31 11:25:01;;;;;;;6.10;3.17;;;;;;;22.34;28.46;101275.41;5091717;28;20760;-70
2021/05/31 11:27:36;;;;;;;5.50;2.72;;;;;;;22.22;28.83;101281.25;5109829;28;20047;-66
2021/05/31 11:30:08;;;;;;;5.57;3.17;;;;;;;22.00;29.14;101260.44;5126483;27;20050;-70
2021/05/31 11:32:36;;;;;;;6.03;3.00;;;;;;;22.04;29.62;101269.75;5107566;28;20418;-67
2021/05/31 11:35:06;;;;;;;8.13;2.92;;;;;;;22.40;29.18;101264.66;5110667;28;20050;-68
2021/05/31 11:37:55;;;;;;;7.88;2.58;;;;;;;22.03;28.74;101270.13;5107080;28;20055;-72
2021/05/31 11:40:35;;;;;;;5.07;2.60;;;;;;;21.89;28.41;101264.28;5106099;28;20043;-72
2021/05/31 11:43:05;;;;;;;5.82;2.85;;;;;;;21.89;28.81;101261.47;5090955;28;20051;-72
2021/05/31 11:45:38;;;;;;;13.43;2.90;;;;;;;22.16;28.40;101268.69;5109133;28;20411;-74
2021/05/31 11:48:17;;;;;;;6.95;2.70;;;;;;;22.06;27.21;101261.75;5088138;28;20591;-67
2021/05/31 11:50:47;;;;;;;9.77;2.60;;;;;;;22.23;26.15;101252.78;5110052;28;20495;-70
2021/05/31 11:53:16;;;;;;;7.45;2.50;;;;;;;22.19;27.15;101251.91;5090037;28;20047;-72